Time;durP1;ratioP1;P1;durP2;ratioP2;P2;SDS_P1;SDS_P2;PMS_P1;PMS_P2;Temp;Humidity;BMP_temperature;BMP_pressure;BME280_temperature;BME280_humidity;BME280_pressure;Samples;Min_cycle;Max_cycle;Signal;HPM_P1;HPM_P2
2021/10/15 04:32:26;;;;;;;6.57;5.33;;;2.90;99.90;;;;;;5185182;23;20507;-77
2021/10/15 04:34:51;;;;;;;12.53;6.40;;;2.90;99.90;;;;;;4972261;28;20439;-76
2021/10/15 04:37:17;;;;;;;11.10;6.33;;;2.90;99.90;;;;;;4975517;28;20193;-75
2021/10/15 04:39:42;;;;;;;14.13;6.93;;;2.80;99.90;;;;;;4971867;28;20189;-72
2021/10/15 04:42:08;;;;;;;10.50;6.90;;;2.80;99.90;;;;;;4965876;28;20722;-73
2021/10/15 04:44:33;;;;;;;8.33;6.63;;;2.80;99.90;;;;;;4956505;28;20259;-73
2021/10/15 04:46:59;;;;;;;7.70;5.73;;;2.80;99.90;;;;;;4973737;28;20218;-73
2021/10/15 04:49:24;;;;;;;8.80;5.43;;;2.80;99.90;;;;;;4972134;28;20203;-73
2021/10/15 04:51:51;;;;;;;9.30;5.93;;;2.80;99.90;;;;;;4972535;28;20201;-73
2021/10/15 04:54:16;;;;;;;9.30;6.40;;;2.80;99.90;;;;;;4973273;28;20184;-73
2021/10/15 04:56:42;;;;;;;16.40;6.10;;;2.80;99.90;;;;;;4973087;28;20805;-74
2021/10/15 04:59:07;;;;;;;9.50;6.43;;;2.80;99.90;;;;;;4976050;28;20246;-74
2021/10/15 05:01:33;;;;;;;11.40;6.37;;;2.80;99.90;;;;;;4974337;28;20295;-74
2021/10/15 05:03:58;;;;;;;13.03;6.77;;;2.80;99.90;;;;;;4981033;28;20208;-74
2021/10/15 05:06:24;;;;;;;7.03;5.90;;;2.80;99.90;;;;;;4987153;28;20244;-72
2021/10/15 05:11:33;;;;;;;9.50;6.23;;;2.80;99.90;;;;;;4971250;28;20205;-75
2021/10/15 05:14:00;;;;;;;8.93;6.70;;;2.80;99.90;;;;;;4975338;28;20811;-74
2021/10/15 05:16:25;;;;;;;10.57;6.80;;;2.80;99.90;;;;;;4974828;28;20905;-75
2021/10/15 05:18:51;;;;;;;11.20;5.93;;;2.90;99.90;;;;;;4974418;28;20479;-75
2021/10/15 05:21:17;;;;;;;13.40;6.00;;;2.90;99.90;;;;;;4975361;28;20612;-75
2021/10/15 05:23:43;;;;;;;7.13;5.73;;;2.90;99.90;;;;;;4968522;28;20447;-74
2021/10/15 05:26:08;;;;;;;13.50;7.17;;;2.90;99.90;;;;;;4974826;28;20905;-75
2021/10/15 05:28:34;;;;;;;9.00;6.63;;;2.90;99.90;;;;;;4973420;28;20596;-75
2021/10/15 05:30:59;;;;;;;7.10;5.93;;;2.80;99.90;;;;;;4971628;28;20623;-76
2021/10/15 05:33:25;;;;;;;7.83;6.47;;;2.90;99.90;;;;;;4966603;28;20189;-75
2021/10/15 05:35:51;;;;;;;6.87;6.27;;;2.90;99.90;;;;;;4975592;28;20177;-75
2021/10/15 05:38:17;;;;;;;13.93;7.20;;;2.90;99.90;;;;;;4970981;28;20685;-75
2021/10/15 05:40:43;;;;;;;12.53;5.80;;;2.90;99.90;;;;;;4970969;28;20435;-74
2021/10/15 05:43:08;;;;;;;11.40;6.40;;;3.00;99.90;;;;;;4973726;28;20184;-75
2021/10/15 05:45:34;;;;;;;11.50;6.67;;;3.00;99.90;;;;;;4971954;28;20198;-75
2021/10/15 05:47:59;;;;;;;8.10;6.83;;;3.10;99.90;;;;;;4974507;28;20217;-75
2021/10/15 05:50:27;;;;;;;5.80;4.97;;;3.10;99.90;;;;;;4957195;28;20291;-75
2021/10/15 05:52:53;;;;;;;7.20;6.50;;;3.10;99.90;;;;;;4957524;28;20189;-75
2021/10/15 06:00:47;;;;;;;10.73;7.00;;;3.40;99.90;;;;;;4969581;28;20481;-75
2021/10/15 06:03:13;;;;;;;10.43;7.00;;;3.50;99.90;;;;;;4969167;28;20412;-76
2021/10/15 06:16:08;;;;;;;8.60;6.93;;;4.00;99.90;;;;;;4971650;28;20447;-75
2021/10/15 06:18:38;;;;;;;8.17;6.60;;;4.10;99.90;;;;;;4973345;28;20460;-75
2021/10/15 06:21:05;;;;;;;9.90;6.60;;;4.20;99.90;;;;;;4972963;28;20468;-75
2021/10/15 06:23:31;;;;;;;8.90;6.73;;;4.30;99.90;;;;;;4974301;28;20430;-77
2021/10/15 06:25:57;;;;;;;9.37;7.70;;;4.40;99.90;;;;;;4968023;28;20424;-75
2021/10/15 06:28:23;;;;;;;12.03;8.67;;;4.50;99.90;;;;;;4974134;28;20924;-75
2021/10/15 06:30:49;;;;;;;14.60;7.97;;;4.50;99.90;;;;;;4972392;28;20446;-74
2021/10/15 06:33:15;;;;;;;8.47;6.87;;;4.60;99.90;;;;;;4968904;28;20639;-74
2021/10/15 06:35:41;;;;;;;12.10;7.00;;;4.70;99.90;;;;;;4974225;28;20414;-75
2021/10/15 06:38:07;;;;;;;10.20;7.90;;;4.80;99.90;;;;;;4967301;28;20819;-74
2021/10/15 06:40:33;;;;;;;13.83;7.50;;;4.90;99.90;;;;;;4971269;28;20199;-74
2021/10/15 06:42:59;;;;;;;10.83;8.07;;;5.00;99.90;;;;;;4972738;28;20190;-74
2021/10/15 06:45:24;;;;;;;11.00;6.90;;;5.10;99.90;;;;;;4973985;28;20484;-74
2021/10/15 06:47:50;;;;;;;13.97;7.27;;;5.10;99.90;;;;;;4970743;28;20231;-75
2021/10/15 06:50:16;;;;;;;17.77;7.43;;;5.20;99.90;;;;;;4971393;28;20181;-74
2021/10/15 06:52:48;;;;;;;19.90;7.83;;;5.40;99.90;;;;;;4972446;28;20367;-75
2021/10/15 06:55:18;;;;;;;24.43;9.00;;;5.50;99.90;;;;;;4971700;28;20600;-74
2021/10/15 06:57:44;;;;;;;16.47;8.70;;;5.60;99.90;;;;;;4972502;28;20492;-74
2021/10/15 07:00:11;;;;;;;18.40;8.40;;;6.10;99.90;;;;;;4969577;28;20537;-74
2021/10/15 07:02:37;;;;;;;26.23;10.20;;;7.60;99.90;;;;;;4980667;28;20206;-74
2021/10/15 07:05:03;;;;;;;31.87;10.77;;;9.30;99.90;;;;;;4972929;28;20417;-75
2021/10/15 07:07:28;;;;;;;20.40;9.27;;;10.20;99.90;;;;;;4973148;28;20211;-75
2021/10/15 07:09:54;;;;;;;14.63;8.07;;;11.10;99.90;;;;;;4965336;28;20458;-75
2021/10/15 07:12:20;;;;;;;16.93;7.97;;;12.10;99.90;;;;;;4973089;28;20204;-75
2021/10/15 07:14:45;;;;;;;10.27;7.20;;;13.30;99.90;;;;;;4971694;28;20207;-75
2021/10/15 07:17:11;;;;;;;14.20;7.80;;;13.80;99.90;;;;;;4973513;28;20243;-75
2021/10/15 07:19:36;;;;;;;11.20;7.27;;;14.40;99.90;;;;;;4970019;28;20290;-75
2021/10/15 07:22:02;;;;;;;11.27;6.53;;;14.50;99.90;;;;;;4970492;28;20278;-76
2021/10/15 07:24:28;;;;;;;8.57;6.20;;;13.90;99.90;;;;;;4969466;28;20606;-75
2021/10/15 07:26:54;;;;;;;14.97;7.00;;;14.30;99.90;;;;;;4973205;28;20179;-75
2021/10/15 07:29:20;;;;;;;8.63;6.23;;;14.40;99.90;;;;;;4971628;28;20452;-75
2021/10/15 07:31:46;;;;;;;10.90;7.30;;;15.10;99.90;;;;;;4962560;28;20480;-75
2021/10/15 07:34:12;;;;;;;8.37;6.77;;;15.30;99.90;;;;;;4966567;28;20316;-75
2021/10/15 07:36:39;;;;;;;11.73;6.47;;;15.30;99.90;;;;;;4972906;28;20498;-75
2021/10/15 07:39:06;;;;;;;11.73;7.10;;;15.10;99.90;;;;;;4971788;28;20423;-75
2021/10/15 07:41:31;;;;;;;11.77;6.93;;;14.60;99.90;;;;;;4967951;28;20463;-76
2021/10/15 07:43:57;;;;;;;10.37;6.30;;;14.50;99.90;;;;;;4972988;28;20415;-75
2021/10/15 07:46:22;;;;;;;7.37;5.70;;;14.40;99.90;;;;;;4971506;28;20188;-75
2021/10/15 07:48:48;;;;;;;13.73;7.00;;;14.20;99.90;;;;;;4972799;28;20199;-75
2021/10/15 07:51:14;;;;;;;11.23;7.10;;;14.20;99.90;;;;;;4970274;28;20222;-75
2021/10/15 07:53:40;;;;;;;9.53;7.13;;;14.00;99.90;;;;;;4970469;28;20200;-75
2021/10/15 07:56:05;;;;;;;9.90;7.40;;;13.80;99.90;;;;;;4967327;28;20443;-76
2021/10/15 07:58:31;;;;;;;6.77;5.83;;;13.50;99.90;;;;;;4972641;28;20175;-75
2021/10/15 08:00:56;;;;;;;7.10;5.97;;;13.60;99.90;;;;;;4970923;28;20681;-75
2021/10/15 08:03:22;;;;;;;8.33;6.20;;;13.70;99.90;;;;;;4969420;28;20590;-75
2021/10/15 08:05:47;;;;;;;11.70;7.73;;;14.00;99.90;;;;;;4972492;28;20227;-75
2021/10/15 08:08:13;;;;;;;13.60;8.50;;;14.00;99.90;;;;;;4971355;28;20223;-75
2021/10/15 08:10:38;;;;;;;8.50;7.37;;;14.20;99.90;;;;;;4969797;28;20191;-74
2021/10/15 08:13:04;;;;;;;10.40;7.17;;;14.40;99.90;;;;;;4967741;28;20184;-75
2021/10/15 08:15:29;;;;;;;12.13;6.80;;;14.80;99.90;;;;;;4972372;28;20168;-74
2021/10/15 08:17:55;;;;;;;12.43;6.23;;;15.10;99.90;;;;;;4971340;28;20669;-74
2021/10/15 08:20:21;;;;;;;6.57;5.90;;;15.10;99.90;;;;;;4972173;28;20227;-75
2021/10/15 08:22:48;;;;;;;12.90;7.13;;;15.20;99.90;;;;;;4971134;28;20856;-75
2021/10/15 08:25:14;;;;;;;15.37;5.90;;;14.80;99.90;;;;;;4960589;28;20252;-74
2021/10/15 08:27:40;;;;;;;12.97;6.90;;;14.50;99.90;;;;;;4971130;28;20565;-73
2021/10/15 08:30:06;;;;;;;11.20;6.50;;;14.40;99.90;;;;;;4972465;28;20180;-73
2021/10/15 08:32:31;;;;;;;8.93;6.13;;;14.50;99.90;;;;;;4966821;28;20216;-73
2021/10/15 08:34:57;;;;;;;8.50;6.70;;;14.80;99.90;;;;;;4968724;28;20903;-75
2021/10/15 08:37:22;;;;;;;8.93;6.70;;;14.90;99.90;;;;;;4971738;28;20176;-75
2021/10/15 08:39:48;;;;;;;16.37;6.10;;;14.70;99.90;;;;;;4970065;28;20804;-74
2021/10/15 08:42:13;;;;;;;6.60;5.90;;;14.60;99.90;;;;;;4972279;28;20278;-72
2021/10/15 08:44:42;;;;;;;7.30;6.60;;;14.40;99.90;;;;;;4969157;28;20250;-76
2021/10/15 08:47:08;;;;;;;11.27;6.37;;;14.40;99.90;;;;;;4972443;28;20177;-75
2021/10/15 08:49:34;;;;;;;16.27;7.77;;;14.50;99.90;;;;;;4970850;28;20498;-75
2021/10/15 08:52:00;;;;;;;10.60;7.50;;;14.20;99.90;;;;;;4971138;28;20471;-75
2021/10/15 08:54:25;;;;;;;8.97;6.40;;;14.20;99.90;;;;;;4968698;28;20247;-75
2021/10/15 08:56:51;;;;;;;9.87;6.50;;;14.60;99.90;;;;;;4969921;28;20184;-76
2021/10/15 08:59:21;;;;;;;13.33;7.70;;;14.90;99.90;;;;;;4981386;28;20306;-75
2021/10/15 09:01:48;;;;;;;17.13;8.00;;;15.30;99.90;;;;;;4974567;28;20188;-75
2021/10/15 09:04:19;;;;;;;10.50;7.00;;;15.30;99.90;;;;;;4972180;28;20418;-74
2021/10/15 09:06:47;;;;;;;12.20;6.50;;;15.60;99.90;;;;;;4968741;28;20435;-74
2021/10/15 09:09:13;;;;;;;10.73;6.97;;;15.60;99.90;;;;;;4971041;28;20467;-75
2021/10/15 09:11:42;;;;;;;8.73;7.07;;;16.00;99.90;;;;;;4967006;28;20465;-74
2021/10/15 09:14:17;;;;;;;8.80;6.53;;;16.20;99.90;;;;;;4973950;28;20407;-75
2021/10/15 09:16:57;;;;;;;9.93;6.57;;;16.50;99.90;;;;;;4971089;28;21184;-75
2021/10/15 09:19:25;;;;;;;7.83;5.87;;;16.60;99.90;;;;;;4975431;28;20419;-75
2021/10/15 09:22:06;;;;;;;8.73;5.90;;;17.00;99.90;;;;;;4973964;28;20485;-75
2021/10/15 09:24:37;;;;;;;7.63;5.80;;;17.40;99.90;;;;;;4972754;28;20442;-75
2021/10/15 09:27:27;;;;;;;8.03;6.07;;;17.60;99.90;;;;;;4972103;28;20431;-75
2021/10/15 09:30:20;;;;;;;9.80;6.33;;;17.70;99.90;;;;;;4975421;28;20411;-75
2021/10/15 09:32:49;;;;;;;7.10;5.00;;;17.70;99.90;;;;;;4962335;28;20501;-75
2021/10/15 09:35:18;;;;;;;7.87;4.77;;;17.90;99.90;;;;;;4973331;28;20441;-73
2021/10/15 09:37:45;;;;;;;6.10;5.40;;;18.30;99.90;;;;;;4970645;28;20964;-75
2021/10/15 09:40:14;;;;;;;7.60;4.40;;;18.40;99.90;;;;;;4973027;28;20474;-75
2021/10/15 09:42:51;;;;;;;6.07;3.80;;;18.60;99.90;;;;;;4973469;28;20976;-76
2021/10/15 09:45:25;;;;;;;11.90;4.80;;;18.30;99.90;;;;;;4975338;28;20411;-75
2021/10/15 09:47:53;;;;;;;6.33;5.20;;;18.50;99.90;;;;;;4972445;28;20471;-75
2021/10/15 09:50:20;;;;;;;8.43;5.87;;;18.80;99.90;;;;;;4972794;28;20514;-75
2021/10/15 09:52:49;;;;;;;9.30;5.57;;;18.70;99.90;;;;;;4973332;28;21092;-75
2021/10/15 09:55:28;;;;;;;7.50;5.00;;;18.80;99.90;;;;;;4973085;28;20441;-75
2021/10/15 09:57:55;;;;;;;6.03;5.50;;;18.70;99.90;;;;;;4973590;28;20786;-76
2021/10/15 10:00:24;;;;;;;9.63;5.37;;;18.70;99.90;;;;;;4968167;28;20887;-75
2021/10/15 10:02:50;;;;;;;9.10;4.77;;;18.90;99.90;;;;;;4972699;28;20435;-75
2021/10/15 10:05:20;;;;;;;9.13;4.77;;;18.80;99.90;;;;;;4955357;28;20413;-75
2021/10/15 10:07:49;;;;;;;3.97;3.57;;;18.60;99.90;;;;;;4955075;28;20976;-75
2021/10/15 10:10:17;;;;;;;8.40;3.90;;;18.40;99.90;;;;;;4966188;28;20469;-75
2021/10/15 10:12:43;;;;;;;7.43;5.63;;;18.30;99.90;;;;;;4973785;28;20431;-75
2021/10/15 10:15:11;;;;;;;9.53;3.90;;;17.90;99.90;;;;;;4973313;28;20463;-75
2021/10/15 10:18:18;;;;;;;8.73;3.23;;;17.40;99.90;;;;;;4974298;28;20427;-75
2021/10/15 10:21:03;;;;;;;4.13;2.87;;;17.50;99.90;;;;;;4969694;28;20470;-74
2021/10/15 10:23:31;;;;;;;4.27;3.10;;;18.00;99.90;;;;;;4974066;28;20422;-76
2021/10/15 10:26:03;;;;;;;3.80;2.97;;;18.80;99.90;;;;;;4971901;28;20569;-75
2021/10/15 10:28:30;;;;;;;8.77;5.23;;;18.80;99.90;;;;;;4974127;28;20478;-76
2021/10/15 10:30:59;;;;;;;8.50;4.67;;;19.30;99.90;;;;;;4972489;28;20498;-75
2021/10/15 10:33:25;;;;;;;9.23;4.70;;;19.50;99.90;;;;;;4963970;28;20436;-76
2021/10/15 10:35:52;;;;;;;9.90;5.17;;;19.40;99.90;;;;;;4972739;28;20443;-75
2021/10/15 10:38:21;;;;;;;9.80;4.80;;;19.30;99.90;;;;;;4974146;28;20415;-75
2021/10/15 10:41:01;;;;;;;10.83;5.40;;;19.40;99.90;;;;;;4969584;28;20438;-75
2021/10/15 10:43:26;;;;;;;4.20;3.80;;;19.70;99.90;;;;;;4971974;28;20511;-76
2021/10/15 10:46:11;;;;;;;4.57;3.97;;;19.80;99.90;;;;;;4974014;28;20423;-75
2021/10/15 10:48:48;;;;;;;4.80;3.50;;;19.70;99.90;;;;;;4972381;28;20223;-75
2021/10/15 10:51:15;;;;;;;6.73;3.27;;;19.70;99.90;;;;;;4973684;28;20853;-75
2021/10/15 10:54:03;;;;;;;3.03;2.83;;;19.90;99.90;;;;;;4969177;28;20439;-76
2021/10/15 10:56:46;;;;;;;4.67;3.10;;;20.10;99.90;;;;;;4979201;28;20415;-74
2021/10/15 10:59:18;;;;;;;4.07;3.27;;;20.10;99.90;;;;;;4977129;28;20435;-75
2021/10/15 11:01:45;;;;;;;5.63;3.60;;;20.30;99.90;;;;;;4973413;28;20506;-75
2021/10/15 11:04:33;;;;;;;2.60;2.40;;;20.30;99.90;;;;;;4968976;28;20490;-76
2021/10/15 11:07:03;;;;;;;5.83;3.00;;;20.00;99.90;;;;;;4954381;28;20509;-75
2021/10/15 11:09:41;;;;;;;6.10;2.50;;;19.70;99.90;;;;;;4959050;28;20448;-76
2021/10/15 11:12:08;;;;;;;3.30;2.40;;;19.60;99.90;;;;;;4953937;28;20425;-76
2021/10/15 11:14:59;;;;;;;3.90;3.60;;;19.50;99.90;;;;;;4960117;28;20431;-72
2021/10/15 11:17:32;;;;;;;3.43;2.43;;;19.10;99.90;;;;;;4971462;28;20411;-75
2021/10/15 11:20:28;;;;;;;3.27;2.20;;;18.90;99.90;;;;;;4971835;28;21004;-75
2021/10/15 11:22:57;;;;;;;4.13;2.83;;;18.80;99.90;;;;;;4971719;28;20537;-75
2021/10/15 11:25:25;;;;;;;3.50;3.20;;;18.70;99.90;;;;;;4970342;28;20431;-76
2021/10/15 11:28:06;;;;;;;5.40;2.83;;;18.40;99.90;;;;;;4970824;28;20471;-76
2021/10/15 11:30:34;;;;;;;4.27;3.00;;;18.20;99.90;;;;;;4971386;28;20465;-75
2021/10/15 11:33:00;;;;;;;3.00;2.80;;;18.00;99.90;;;;;;4966644;28;20495;-75
2021/10/15 11:35:29;;;;;;;4.30;2.93;;;17.90;99.90;;;;;;4972316;28;20416;-75
2021/10/15 11:38:11;;;;;;;3.80;3.50;;;17.80;99.90;;;;;;4969309;28;20481;-75
2021/10/15 11:40:37;;;;;;;6.40;4.07;;;17.80;99.90;;;;;;4970311;28;20470;-76
2021/10/15 11:43:17;;;;;;;4.43;3.43;;;17.90;99.90;;;;;;4968649;28;20420;-75
2021/10/15 11:45:49;;;;;;;6.43;3.90;;;17.80;99.90;;;;;;4972872;28;20498;-75
2021/10/15 11:48:30;;;;;;;3.70;3.40;;;17.80;99.90;;;;;;4968137;28;20474;-75
2021/10/15 11:51:02;;;;;;;5.30;3.90;;;17.50;99.90;;;;;;4972776;28;20442;-75
2021/10/15 11:53:37;;;;;;;4.63;3.00;;;17.30;99.90;;;;;;4970918;28;20435;-75
2021/10/15 11:56:04;;;;;;;3.03;2.73;;;17.40;99.90;;;;;;4970253;28;20453;-76
2021/10/15 11:58:35;;;;;;;3.83;3.17;;;17.50;99.90;;;;;;4970577;28;20878;-75
2021/10/15 12:01:07;;;;;;;3.10;2.83;;;17.50;99.90;;;;;;4971611;28;20802;-75
2021/10/15 12:03:51;;;;;;;5.60;3.13;;;17.30;99.90;;;;;;4971035;28;20446;-75
2021/10/15 12:06:18;;;;;;;4.13;3.83;;;17.40;99.90;;;;;;4972664;28;20882;-75
2021/10/15 12:08:45;;;;;;;3.70;2.90;;;17.60;99.90;;;;;;4969123;28;20529;-76
2021/10/15 12:11:24;;;;;;;3.83;3.53;;;17.60;99.90;;;;;;4968225;28;20451;-75
2021/10/15 12:13:51;;;;;;;4.63;4.10;;;17.80;99.90;;;;;;4970586;28;20431;-74
2021/10/15 12:16:27;;;;;;;7.80;3.30;;;17.80;99.90;;;;;;4971050;28;20415;-74
2021/10/15 12:19:03;;;;;;;3.53;3.10;;;17.50;99.90;;;;;;4953507;28;20408;-75
2021/10/15 12:21:31;;;;;;;3.70;3.40;;;17.40;99.90;;;;;;4966079;28;20516;-74
2021/10/15 12:23:56;;;;;;;4.80;3.50;;;17.50;99.90;;;;;;4972182;28;20420;-74
2021/10/15 12:26:23;;;;;;;3.93;3.40;;;17.40;99.90;;;;;;4966747;28;20446;-75
2021/10/15 12:28:49;;;;;;;3.40;3.10;;;17.30;99.90;;;;;;4972431;28;20211;-74
2021/10/15 12:31:35;;;;;;;3.93;3.03;;;17.30;99.90;;;;;;4968447;28;20474;-75
2021/10/15 12:34:10;;;;;;;4.80;3.43;;;17.40;99.90;;;;;;4966224;28;20467;-75
2021/10/15 12:36:37;;;;;;;4.33;3.53;;;17.10;99.90;;;;;;4970992;28;20466;-74
2021/10/15 12:39:24;;;;;;;5.57;3.73;;;17.00;99.90;;;;;;4974459;28;20419;-74
2021/10/15 12:41:52;;;;;;;9.50;4.37;;;17.00;99.90;;;;;;4966677;28;20489;-74
2021/10/15 12:44:23;;;;;;;3.67;3.40;;;17.20;99.90;;;;;;4971795;28;20411;-74
2021/10/15 12:47:02;;;;;;;6.20;3.40;;;17.00;99.90;;;;;;4971204;28;20781;-74
2021/10/15 12:49:29;;;;;;;4.80;2.77;;;17.00;99.90;;;;;;4955555;29;20487;-75
2021/10/15 12:51:55;;;;;;;4.23;2.80;;;17.10;99.90;;;;;;4956424;28;20478;-74
2021/10/15 12:54:44;;;;;;;4.77;3.23;;;17.10;99.90;;;;;;4979347;28;20499;-74
2021/10/15 12:57:10;;;;;;;4.37;3.23;;;17.10;99.90;;;;;;4974963;28;20191;-74
2021/10/15 12:59:36;;;;;;;3.80;3.50;;;17.00;99.90;;;;;;4974496;28;20539;-74
2021/10/15 13:02:08;;;;;;;3.80;3.00;;;16.90;99.90;;;;;;4975532;28;20912;-74
2021/10/15 13:04:34;;;;;;;7.83;3.13;;;16.70;99.90;;;;;;4971082;28;20266;-74
2021/10/15 13:07:01;;;;;;;3.77;3.03;;;16.40;99.90;;;;;;4975841;28;20442;-74
2021/10/15 13:09:31;;;;;;;4.13;2.90;;;16.40;99.90;;;;;;4972002;28;20525;-74
2021/10/15 13:11:57;;;;;;;4.80;3.47;;;16.40;99.90;;;;;;4974019;28;20439;-74
2021/10/15 13:14:23;;;;;;;3.37;3.17;;;16.40;99.90;;;;;;4973687;28;20933;-74
2021/10/15 13:16:49;;;;;;;3.07;2.77;;;16.50;99.90;;;;;;4972527;28;20500;-74
2021/10/15 13:19:14;;;;;;;4.30;3.30;;;16.50;99.90;;;;;;4975481;28;20267;-74
2021/10/15 13:21:40;;;;;;;3.07;2.77;;;16.50;99.90;;;;;;4974087;28;20557;-74
2021/10/15 13:24:06;;;;;;;3.90;3.50;;;16.40;99.90;;;;;;4975159;28;20180;-74
2021/10/15 13:26:32;;;;;;;3.77;3.40;;;16.20;99.90;;;;;;4969658;28;20206;-74
2021/10/15 13:28:57;;;;;;;3.20;2.90;;;16.10;99.90;;;;;;4975361;28;20984;-74
2021/10/15 13:31:23;;;;;;;3.77;3.40;;;16.10;99.90;;;;;;4971398;28;20227;-73
2021/10/15 13:33:48;;;;;;;3.40;3.10;;;16.00;99.90;;;;;;4967755;28;20176;-73
2021/10/15 13:36:14;;;;;;;3.30;2.77;;;16.00;99.90;;;;;;4972782;28;20202;-74
2021/10/15 13:38:45;;;;;;;3.37;2.77;;;16.10;99.90;;;;;;4971423;28;20191;-73
2021/10/15 13:41:16;;;;;;;5.30;4.10;;;16.00;99.90;;;;;;4972138;28;20207;-73
2021/10/15 13:51:55;;;;;;;2.80;2.50;;;16.10;99.90;;;;;;4974919;28;20466;-72
2021/10/15 13:54:21;;;;;;;3.67;3.10;;;16.10;99.90;;;;;;4973191;28;20446;-73
2021/10/15 13:56:46;;;;;;;4.03;2.70;;;16.00;99.90;;;;;;4972886;28;20944;-72
2021/10/15 13:59:14;;;;;;;4.03;3.00;;;16.10;99.90;;;;;;4968993;28;20452;-72
2021/10/15 14:01:42;;;;;;;4.07;3.50;;;16.00;99.90;;;;;;4972795;28;20239;-73
2021/10/15 14:04:26;;;;;;;3.60;3.30;;;16.00;99.90;;;;;;4973140;28;20438;-73
2021/10/15 14:06:52;;;;;;;4.07;3.00;;;15.90;99.90;;;;;;4974791;28;20423;-73
2021/10/15 14:09:17;;;;;;;2.80;2.60;;;15.80;99.90;;;;;;4969804;28;21046;-73
2021/10/15 14:11:43;;;;;;;4.50;3.60;;;15.80;99.90;;;;;;4973643;28;20212;-72
2021/10/15 14:14:09;;;;;;;5.07;3.30;;;15.80;99.90;;;;;;4974039;28;20202;-73
2021/10/15 14:16:34;;;;;;;5.30;3.30;;;15.60;99.90;;;;;;4970819;28;20551;-73
2021/10/15 14:19:00;;;;;;;4.57;2.87;;;15.60;99.90;;;;;;4974592;28;20190;-73
2021/10/15 14:21:26;;;;;;;2.90;2.37;;;15.40;99.90;;;;;;4970573;28;20633;-73
2021/10/15 14:23:51;;;;;;;10.37;2.53;;;15.50;99.90;;;;;;4974146;28;20178;-73
2021/10/15 14:26:17;;;;;;;2.20;2.10;;;15.40;99.90;;;;;;4968322;28;20466;-73
2021/10/15 14:28:43;;;;;;;3.07;2.77;;;15.30;99.90;;;;;;4974115;28;20211;-73
2021/10/15 14:31:09;;;;;;;5.37;2.57;;;15.30;99.90;;;;;;4962271;28;20216;-73
2021/10/15 14:33:35;;;;;;;4.67;2.70;;;15.20;99.90;;;;;;4963314;28;20192;-73
2021/10/15 14:36:01;;;;;;;4.20;2.43;;;15.20;99.90;;;;;;4973959;28;20418;-73
2021/10/15 14:38:26;;;;;;;3.30;3.10;;;15.10;99.90;;;;;;4972824;28;20188;-73
2021/10/15 14:40:52;;;;;;;3.63;2.20;;;15.10;99.90;;;;;;4971192;28;20212;-73
2021/10/15 14:43:17;;;;;;;3.83;3.20;;;15.10;99.90;;;;;;4970421;28;20184;-73
2021/10/15 14:45:43;;;;;;;4.20;2.57;;;15.00;99.90;;;;;;4955993;28;20192;-76
2021/10/15 14:48:08;;;;;;;4.37;1.90;;;14.90;99.90;;;;;;4955839;28;20216;-76
2021/10/15 14:50:34;;;;;;;1.73;1.57;;;15.00;99.90;;;;;;4953947;28;20606;-76
2021/10/15 14:52:59;;;;;;;2.20;1.80;;;14.90;99.90;;;;;;4968806;28;20246;-76
2021/10/15 14:55:26;;;;;;;2.90;2.60;;;14.80;99.90;;;;;;4973914;28;20665;-75
2021/10/15 14:57:53;;;;;;;5.50;2.17;;;14.80;99.90;;;;;;4971928;28;20441;-76
2021/10/15 15:00:18;;;;;;;4.43;2.17;;;14.80;99.90;;;;;;4972548;28;20524;-76
2021/10/15 15:02:45;;;;;;;1.90;1.77;;;14.70;99.90;;;;;;4971024;28;20649;-76
2021/10/15 15:05:11;;;;;;;3.93;2.00;;;14.70;99.90;;;;;;4962453;28;20722;-76
2021/10/15 15:07:37;;;;;;;2.90;2.10;;;14.60;99.90;;;;;;4965061;28;20475;-76
2021/10/15 15:10:04;;;;;;;2.00;1.77;;;14.60;99.90;;;;;;4962337;28;20436;-77
2021/10/15 15:12:30;;;;;;;3.00;1.80;;;14.60;99.90;;;;;;4962073;28;20200;-77
2021/10/15 15:14:55;;;;;;;2.67;1.70;;;14.50;99.90;;;;;;4959929;28;20415;-75
2021/10/15 15:17:22;;;;;;;1.60;1.50;;;14.50;99.90;;;;;;4963141;28;20184;-76
2021/10/15 15:19:47;;;;;;;1.80;1.70;;;14.40;99.90;;;;;;4962387;28;20299;-75
2021/10/15 15:22:14;;;;;;;4.90;4.27;;;14.30;99.90;;;;;;4960155;28;20550;-77
2021/10/15 15:24:40;;;;;;;3.33;2.23;;;14.30;99.90;;;;;;4960716;28;20180;-76
2021/10/15 15:27:05;;;;;;;5.00;2.40;;;14.10;99.90;;;;;;4966655;28;20445;-75
2021/10/15 15:29:31;;;;;;;2.30;1.90;;;14.10;99.90;;;;;;4973083;28;20215;-75
2021/10/15 15:31:59;;;;;;;2.70;1.70;;;14.00;99.90;;;;;;4963870;28;20211;-75
2021/10/15 15:34:25;;;;;;;1.73;1.63;;;13.90;99.90;;;;;;4968257;28;20184;-75
2021/10/15 15:36:52;;;;;;;2.70;2.20;;;13.90;99.90;;;;;;4956310;28;20412;-76
2021/10/15 15:39:17;;;;;;;4.27;2.33;;;13.90;99.90;;;;;;4963270;28;20184;-76
2021/10/15 15:41:43;;;;;;;3.23;1.93;;;13.80;99.90;;;;;;4964478;28;20471;-76
2021/10/15 15:44:19;;;;;;;2.13;2.03;;;13.80;99.90;;;;;;4971384;28;20900;-76
2021/10/15 15:46:45;;;;;;;3.53;2.10;;;13.70;99.90;;;;;;4972023;28;20207;-76
2021/10/15 15:49:11;;;;;;;4.23;2.37;;;13.60;99.90;;;;;;4970148;28;21221;-76
2021/10/15 15:51:37;;;;;;;2.57;2.37;;;13.50;99.90;;;;;;4969093;28;20216;-76
2021/10/15 15:54:03;;;;;;;5.50;3.90;;;13.50;99.90;;;;;;4970258;28;21009;-76
2021/10/15 15:56:28;;;;;;;3.57;2.80;;;13.40;99.90;;;;;;4964169;28;20192;-76
2021/10/15 15:58:54;;;;;;;5.60;2.90;;;13.30;99.90;;;;;;4966016;28;20201;-76
2021/10/15 16:01:20;;;;;;;6.20;2.70;;;13.20;99.90;;;;;;4964745;28;20470;-76
2021/10/15 16:03:45;;;;;;;5.20;2.20;;;13.20;99.90;;;;;;4955096;28;20428;-75
2021/10/15 16:06:11;;;;;;;3.03;2.70;;;13.00;99.90;;;;;;4952764;28;20214;-76
2021/10/15 16:08:36;;;;;;;2.60;2.40;;;13.00;99.90;;;;;;4949352;29;21016;-76
2021/10/15 16:11:02;;;;;;;3.37;3.07;;;12.90;99.90;;;;;;4956256;28;20246;-75
2021/10/15 16:13:27;;;;;;;3.10;2.80;;;12.80;99.90;;;;;;4950151;28;20351;-75
2021/10/15 16:15:53;;;;;;;3.37;2.37;;;12.70;99.90;;;;;;4956485;28;20185;-75
2021/10/15 16:18:18;;;;;;;5.53;3.30;;;12.60;99.90;;;;;;4957731;28;20191;-75
2021/10/15 16:20:44;;;;;;;3.53;2.40;;;12.40;99.90;;;;;;4953446;28;20211;-76
2021/10/15 16:23:10;;;;;;;3.57;2.97;;;12.40;99.90;;;;;;4958619;28;20259;-76
2021/10/15 16:25:35;;;;;;;5.70;3.00;;;12.30;99.90;;;;;;4963037;28;20192;-75
2021/10/15 16:28:01;;;;;;;5.23;2.97;;;12.20;99.90;;;;;;4972970;28;20613;-76
2021/10/15 16:30:28;;;;;;;5.40;3.63;;;12.00;99.90;;;;;;4970549;28;20212;-76
2021/10/15 16:32:54;;;;;;;4.67;3.63;;;11.90;99.90;;;;;;4963413;28;20295;-75
2021/10/15 16:35:19;;;;;;;5.23;2.87;;;11.80;99.90;;;;;;4966225;28;20467;-76
2021/10/15 16:37:47;;;;;;;6.30;3.00;;;11.70;99.90;;;;;;4955739;28;20188;-74
2021/10/15 16:40:13;;;;;;;6.50;3.60;;;11.60;99.90;;;;;;4954722;28;20197;-76
2021/10/15 16:42:40;;;;;;;5.80;3.27;;;11.40;99.90;;;;;;4957309;28;20443;-75
2021/10/15 16:45:09;;;;;;;4.87;2.70;;;11.40;99.90;;;;;;4959674;28;20521;-76
2021/10/15 16:47:34;;;;;;;3.73;2.57;;;11.20;99.90;;;;;;4967093;28;20474;-76
2021/10/15 16:50:00;;;;;;;3.30;2.93;;;11.10;99.90;;;;;;4973549;28;20525;-78
2021/10/15 16:52:25;;;;;;;4.10;2.80;;;11.00;99.90;;;;;;4974564;28;20212;-74
2021/10/15 16:54:51;;;;;;;4.43;2.57;;;10.90;99.90;;;;;;4954312;28;20181;-74
2021/10/15 16:57:17;;;;;;;3.10;2.80;;;10.80;99.90;;;;;;4960133;28;20186;-75
2021/10/15 16:59:43;;;;;;;3.33;3.03;;;10.70;99.90;;;;;;4956833;28;20283;-76
2021/10/15 17:02:08;;;;;;;5.40;2.80;;;10.60;99.90;;;;;;4965077;28;21556;-75
2021/10/15 17:04:34;;;;;;;9.63;5.27;;;10.50;99.90;;;;;;4969849;28;20878;-76
2021/10/15 17:07:00;;;;;;;13.57;4.87;;;10.40;99.90;;;;;;4958832;28;20771;-75
2021/10/15 17:09:25;;;;;;;16.73;3.50;;;10.30;99.90;;;;;;4964826;28;20215;-76
2021/10/15 17:11:51;;;;;;;4.90;3.40;;;10.20;99.90;;;;;;4955755;28;20443;-75
2021/10/15 17:14:17;;;;;;;3.73;3.23;;;10.10;99.90;;;;;;4963029;28;20197;-75
2021/10/15 17:16:43;;;;;;;4.20;3.20;;;10.00;99.90;;;;;;4971970;28;20183;-75
2021/10/15 17:19:09;;;;;;;3.00;2.80;;;9.90;99.90;;;;;;4964027;28;20205;-75
2021/10/15 17:21:37;;;;;;;5.80;4.10;;;9.80;99.90;;;;;;4967176;28;20559;-76
2021/10/15 17:24:04;;;;;;;4.73;4.13;;;9.70;99.90;;;;;;4969864;28;20193;-75
2021/10/15 17:26:29;;;;;;;6.63;4.90;;;9.70;99.90;;;;;;4959100;28;20536;-75
2021/10/15 17:28:55;;;;;;;10.83;7.30;;;9.60;99.90;;;;;;4964038;28;21003;-75
2021/10/15 17:31:21;;;;;;;15.90;9.00;;;9.50;99.90;;;;;;4968441;28;20222;-76
2021/10/15 17:33:48;;;;;;;11.67;8.47;;;9.40;99.90;;;;;;4963796;28;20258;-76
2021/10/15 17:36:14;;;;;;;14.87;8.20;;;9.30;99.90;;;;;;4963650;28;20209;-76
2021/10/15 17:38:39;;;;;;;11.97;6.60;;;9.20;99.90;;;;;;4956697;28;20456;-75
2021/10/15 17:41:05;;;;;;;10.90;7.90;;;9.20;99.90;;;;;;4952117;28;20476;-76
2021/10/15 17:43:30;;;;;;;10.37;7.90;;;9.10;99.90;;;;;;4967314;28;20219;-76
2021/10/15 17:45:57;;;;;;;9.60;5.90;;;9.00;99.90;;;;;;4955134;28;20185;-76
2021/10/15 17:48:23;;;;;;;11.43;5.97;;;8.90;99.90;;;;;;4964208;28;20206;-76